sensor_id;sensor_type;location;lat;lon;timestamp;P1;durP1;ratioP1;P2;durP2;ratioP2
56752;SDS011;42627;42.646;23.642;2022-09-03T00:02:15;6.43;;;2.88;;
56752;SDS011;42627;42.646;23.642;2022-09-03T00:04:24;6.95;;;3.40;;
56752;SDS011;42627;42.646;23.642;2022-09-03T00:06:48;4.63;;;2.53;;
56752;SDS011;42627;42.646;23.642;2022-09-03T00:09:11;5.30;;;2.58;;
56752;SDS011;42627;42.646;23.642;2022-09-03T00:11:19;7.22;;;3.00;;
56752;SDS011;42627;42.646;23.642;2022-09-03T00:13:26;7.35;;;3.13;;
56752;SDS011;42627;42.646;23.642;2022-09-03T00:15:32;6.53;;;3.20;;
56752;SDS011;42627;42.646;23.642;2022-09-03T00:17:54;7.43;;;3.53;;
56752;SDS011;42627;42.646;23.642;2022-09-03T00:20:15;6.57;;;3.05;;
56752;SDS011;42627;42.646;23.642;2022-09-03T00:22:27;6.53;;;2.72;;
56752;SDS011;42627;42.646;23.642;2022-09-03T00:24:33;7.15;;;3.45;;
56752;SDS011;42627;42.646;23.642;2022-09-03T00:26:35;8.13;;;3.28;;
56752;SDS011;42627;42.646;23.642;2022-09-03T00:31:03;6.22;;;3.00;;
56752;SDS011;42627;42.646;23.642;2022-09-03T00:35:51;6.45;;;3.38;;
56752;SDS011;42627;42.646;23.642;2022-09-03T00:38:05;6.32;;;3.28;;
56752;SDS011;42627;42.646;23.642;2022-09-03T00:40:09;7.55;;;3.28;;
56752;SDS011;42627;42.646;23.642;2022-09-03T00:45:23;9.00;;;3.15;;
56752;SDS011;42627;42.646;23.642;2022-09-03T00:48:23;8.60;;;2.88;;
56752;SDS011;42627;42.646;23.642;2022-09-03T00:55:12;7.28;;;3.35;;
56752;SDS011;42627;42.646;23.642;2022-09-03T01:00:09;6.93;;;3.30;;
56752;SDS011;42627;42.646;23.642;2022-09-03T01:07:16;6.25;;;2.90;;
56752;SDS011;42627;42.646;23.642;2022-09-03T01:12:00;6.97;;;3.78;;
56752;SDS011;42627;42.646;23.642;2022-09-03T01:17:19;9.13;;;3.20;;
56752;SDS011;42627;42.646;23.642;2022-09-03T01:19:57;8.15;;;3.58;;
56752;SDS011;42627;42.646;23.642;2022-09-03T01:22:10;6.00;;;3.33;;
56752;SDS011;42627;42.646;23.642;2022-09-03T01:27:00;6.55;;;2.75;;
56752;SDS011;42627;42.646;23.642;2022-09-03T01:32:05;7.07;;;3.42;;
56752;SDS011;42627;42.646;23.642;2022-09-03T01:41:59;8.70;;;4.50;;
56752;SDS011;42627;42.646;23.642;2022-09-03T01:50:00;11.00;;;4.38;;
56752;SDS011;42627;42.646;23.642;2022-09-03T01:52:24;7.70;;;4.05;;
56752;SDS011;42627;42.646;23.642;2022-09-03T01:57:48;9.10;;;4.07;;
56752;SDS011;42627;42.646;23.642;2022-09-03T02:02:23;10.27;;;4.50;;
56752;SDS011;42627;42.646;23.642;2022-09-03T02:04:25;11.45;;;4.85;;
56752;SDS011;42627;42.646;23.642;2022-09-03T02:06:27;10.23;;;4.32;;
56752;SDS011;42627;42.646;23.642;2022-09-03T02:08:32;10.50;;;5.03;;
56752;SDS011;42627;42.646;23.642;2022-09-03T02:12:40;10.68;;;5.18;;
56752;SDS011;42627;42.646;23.642;2022-09-03T02:15:43;7.78;;;3.67;;
56752;SDS011;42627;42.646;23.642;2022-09-03T02:17:51;7.03;;;3.47;;
56752;SDS011;42627;42.646;23.642;2022-09-03T02:19:55;11.25;;;3.80;;
56752;SDS011;42627;42.646;23.642;2022-09-03T02:21:57;8.52;;;4.72;;
56752;SDS011;42627;42.646;23.642;2022-09-03T02:23:58;9.13;;;3.17;;
56752;SDS011;42627;42.646;23.642;2022-09-03T02:26:00;6.45;;;2.70;;
56752;SDS011;42627;42.646;23.642;2022-09-03T02:28:02;6.38;;;3.28;;
56752;SDS011;42627;42.646;23.642;2022-09-03T02:30:04;7.85;;;3.97;;
56752;SDS011;42627;42.646;23.642;2022-09-03T02:32:07;9.40;;;3.92;;
56752;SDS011;42627;42.646;23.642;2022-09-03T02:34:07;8.32;;;3.92;;
56752;SDS011;42627;42.646;23.642;2022-09-03T02:36:10;10.88;;;3.85;;
56752;SDS011;42627;42.646;23.642;2022-09-03T02:38:17;8.82;;;3.50;;
56752;SDS011;42627;42.646;23.642;2022-09-03T02:40:20;8.05;;;3.45;;
56752;SDS011;42627;42.646;23.642;2022-09-03T02:42:33;8.80;;;3.40;;
56752;SDS011;42627;42.646;23.642;2022-09-03T02:45:08;9.02;;;3.72;;
56752;SDS011;42627;42.646;23.642;2022-09-03T02:47:18;7.22;;;2.88;;
56752;SDS011;42627;42.646;23.642;2022-09-03T02:49:19;6.63;;;2.80;;
56752;SDS011;42627;42.646;23.642;2022-09-03T02:51:20;7.55;;;3.50;;
56752;SDS011;42627;42.646;23.642;2022-09-03T02:53:20;8.23;;;3.38;;
56752;SDS011;42627;42.646;23.642;2022-09-03T02:55:21;8.05;;;3.28;;
56752;SDS011;42627;42.646;23.642;2022-09-03T02:57:22;6.97;;;3.55;;
56752;SDS011;42627;42.646;23.642;2022-09-03T02:59:22;10.80;;;3.63;;
56752;SDS011;42627;42.646;23.642;2022-09-03T03:01:23;8.48;;;3.53;;
56752;SDS011;42627;42.646;23.642;2022-09-03T03:03:24;6.35;;;3.45;;
56752;SDS011;42627;42.646;23.642;2022-09-03T03:05:25;7.75;;;3.38;;
56752;SDS011;42627;42.646;23.642;2022-09-03T03:07:35;10.32;;;4.80;;
56752;SDS011;42627;42.646;23.642;2022-09-03T03:09:39;6.50;;;3.57;;
56752;SDS011;42627;42.646;23.642;2022-09-03T03:16:34;11.00;;;3.92;;
56752;SDS011;42627;42.646;23.642;2022-09-03T03:18:34;8.15;;;4.00;;
56752;SDS011;42627;42.646;23.642;2022-09-03T03:20:35;7.20;;;3.70;;
56752;SDS011;42627;42.646;23.642;2022-09-03T03:22:36;7.25;;;3.83;;
56752;SDS011;42627;42.646;23.642;2022-09-03T03:24:36;7.03;;;3.35;;
56752;SDS011;42627;42.646;23.642;2022-09-03T03:26:37;7.53;;;3.53;;
56752;SDS011;42627;42.646;23.642;2022-09-03T03:28:37;8.00;;;3.80;;
56752;SDS011;42627;42.646;23.642;2022-09-03T03:30:44;9.35;;;4.07;;
56752;SDS011;42627;42.646;23.642;2022-09-03T03:32:47;8.38;;;3.60;;
56752;SDS011;42627;42.646;23.642;2022-09-03T03:34:48;8.75;;;3.35;;
56752;SDS011;42627;42.646;23.642;2022-09-03T03:36:49;9.02;;;4.20;;
56752;SDS011;42627;42.646;23.642;2022-09-03T03:38:51;10.10;;;4.13;;
56752;SDS011;42627;42.646;23.642;2022-09-03T03:40:58;7.82;;;3.78;;
56752;SDS011;42627;42.646;23.642;2022-09-03T03:43:11;9.65;;;4.00;;
56752;SDS011;42627;42.646;23.642;2022-09-03T03:48:09;8.30;;;3.72;;
56752;SDS011;42627;42.646;23.642;2022-09-03T03:50:10;9.43;;;4.80;;
56752;SDS011;42627;42.646;23.642;2022-09-03T03:52:11;12.68;;;5.00;;
56752;SDS011;42627;42.646;23.642;2022-09-03T03:54:12;7.70;;;3.42;;
56752;SDS011;42627;42.646;23.642;2022-09-03T03:56:13;7.50;;;3.92;;
56752;SDS011;42627;42.646;23.642;2022-09-03T03:58:15;11.85;;;4.70;;
56752;SDS011;42627;42.646;23.642;2022-09-03T04:02:26;8.43;;;3.90;;
56752;SDS011;42627;42.646;23.642;2022-09-03T04:04:27;8.93;;;3.60;;
56752;SDS011;42627;42.646;23.642;2022-09-03T04:06:27;9.45;;;3.95;;
56752;SDS011;42627;42.646;23.642;2022-09-03T04:08:28;8.70;;;4.03;;
56752;SDS011;42627;42.646;23.642;2022-09-03T04:13:07;8.55;;;4.03;;
56752;SDS011;42627;42.646;23.642;2022-09-03T04:15:22;9.60;;;3.65;;
56752;SDS011;42627;42.646;23.642;2022-09-03T04:17:23;10.60;;;4.03;;
56752;SDS011;42627;42.646;23.642;2022-09-03T04:19:24;9.10;;;3.90;;
56752;SDS011;42627;42.646;23.642;2022-09-03T04:21:25;8.73;;;3.75;;
56752;SDS011;42627;42.646;23.642;2022-09-03T04:23:29;8.90;;;4.22;;
56752;SDS011;42627;42.646;23.642;2022-09-03T04:25:31;8.82;;;4.57;;
56752;SDS011;42627;42.646;23.642;2022-09-03T04:27:32;9.20;;;3.92;;
56752;SDS011;42627;42.646;23.642;2022-09-03T04:31:43;8.57;;;4.05;;
56752;SDS011;42627;42.646;23.642;2022-09-03T04:34:04;8.18;;;4.05;;
56752;SDS011;42627;42.646;23.642;2022-09-03T04:36:09;11.82;;;4.65;;
56752;SDS011;42627;42.646;23.642;2022-09-03T04:38:10;7.63;;;3.92;;
56752;SDS011;42627;42.646;23.642;2022-09-03T04:40:28;9.88;;;4.35;;
56752;SDS011;42627;42.646;23.642;2022-09-03T04:42:32;10.70;;;4.85;;
56752;SDS011;42627;42.646;23.642;2022-09-03T04:46:55;8.40;;;3.50;;
56752;SDS011;42627;42.646;23.642;2022-09-03T04:48:56;10.02;;;4.20;;
56752;SDS011;42627;42.646;23.642;2022-09-03T04:51:03;6.97;;;3.80;;
56752;SDS011;42627;42.646;23.642;2022-09-03T04:53:09;10.32;;;4.18;;
56752;SDS011;42627;42.646;23.642;2022-09-03T04:55:09;8.35;;;4.05;;
56752;SDS011;42627;42.646;23.642;2022-09-03T04:57:10;7.35;;;3.42;;
56752;SDS011;42627;42.646;23.642;2022-09-03T05:01:23;7.90;;;4.28;;
56752;SDS011;42627;42.646;23.642;2022-09-03T05:03:24;6.70;;;3.45;;
56752;SDS011;42627;42.646;23.642;2022-09-03T05:05:25;7.70;;;3.58;;
56752;SDS011;42627;42.646;23.642;2022-09-03T05:07:26;7.93;;;3.45;;
56752;SDS011;42627;42.646;23.642;2022-09-03T05:09:37;8.05;;;4.38;;
56752;SDS011;42627;42.646;23.642;2022-09-03T05:11:55;7.57;;;3.67;;
56752;SDS011;42627;42.646;23.642;2022-09-03T05:14:08;11.02;;;4.28;;
56752;SDS011;42627;42.646;23.642;2022-09-03T05:16:11;10.18;;;4.00;;
56752;SDS011;42627;42.646;23.642;2022-09-03T05:18:12;8.55;;;4.03;;
56752;SDS011;42627;42.646;23.642;2022-09-03T05:20:13;13.10;;;4.38;;
56752;SDS011;42627;42.646;23.642;2022-09-03T05:22:13;9.57;;;3.92;;
56752;SDS011;42627;42.646;23.642;2022-09-03T05:24:20;11.48;;;4.35;;
56752;SDS011;42627;42.646;23.642;2022-09-03T05:26:22;10.77;;;4.85;;
56752;SDS011;42627;42.646;23.642;2022-09-03T05:28:25;11.55;;;4.55;;
56752;SDS011;42627;42.646;23.642;2022-09-03T05:33:21;10.23;;;4.68;;
56752;SDS011;42627;42.646;23.642;2022-09-03T05:35:22;9.32;;;4.30;;
56752;SDS011;42627;42.646;23.642;2022-09-03T05:37:24;13.43;;;4.88;;
56752;SDS011;42627;42.646;23.642;2022-09-03T05:42:08;10.27;;;4.65;;
56752;SDS011;42627;42.646;23.642;2022-09-03T05:44:13;11.40;;;4.65;;
56752;SDS011;42627;42.646;23.642;2022-09-03T05:46:14;12.07;;;4.65;;
56752;SDS011;42627;42.646;23.642;2022-09-03T05:48:17;11.07;;;4.18;;
56752;SDS011;42627;42.646;23.642;2022-09-03T05:50:17;9.88;;;4.70;;
56752;SDS011;42627;42.646;23.642;2022-09-03T05:52:18;8.70;;;3.75;;
56752;SDS011;42627;42.646;23.642;2022-09-03T05:54:20;8.13;;;4.15;;
56752;SDS011;42627;42.646;23.642;2022-09-03T05:56:22;10.45;;;4.50;;
56752;SDS011;42627;42.646;23.642;2022-09-03T05:58:31;9.13;;;4.20;;
56752;SDS011;42627;42.646;23.642;2022-09-03T06:00:39;9.93;;;3.63;;
56752;SDS011;42627;42.646;23.642;2022-09-03T06:02:40;11.32;;;3.85;;
56752;SDS011;42627;42.646;23.642;2022-09-03T06:04:41;6.82;;;3.45;;
56752;SDS011;42627;42.646;23.642;2022-09-03T06:06:43;8.82;;;3.95;;
56752;SDS011;42627;42.646;23.642;2022-09-03T06:08:58;9.38;;;3.92;;
56752;SDS011;42627;42.646;23.642;2022-09-03T06:16:03;11.38;;;4.47;;
56752;SDS011;42627;42.646;23.642;2022-09-03T06:18:06;9.70;;;4.68;;
56752;SDS011;42627;42.646;23.642;2022-09-03T06:20:08;12.07;;;5.97;;
56752;SDS011;42627;42.646;23.642;2022-09-03T06:22:09;13.32;;;5.88;;
56752;SDS011;42627;42.646;23.642;2022-09-03T06:24:11;12.13;;;6.85;;
56752;SDS011;42627;42.646;23.642;2022-09-03T06:26:13;12.82;;;6.07;;
56752;SDS011;42627;42.646;23.642;2022-09-03T06:30:24;9.93;;;4.80;;
56752;SDS011;42627;42.646;23.642;2022-09-03T06:32:26;8.60;;;4.70;;
56752;SDS011;42627;42.646;23.642;2022-09-03T06:34:28;9.23;;;4.25;;
56752;SDS011;42627;42.646;23.642;2022-09-03T06:36:28;8.60;;;3.67;;
56752;SDS011;42627;42.646;23.642;2022-09-03T06:38:30;10.38;;;4.65;;
56752;SDS011;42627;42.646;23.642;2022-09-03T06:43:06;12.55;;;4.03;;
56752;SDS011;42627;42.646;23.642;2022-09-03T06:45:10;9.30;;;4.25;;
56752;SDS011;42627;42.646;23.642;2022-09-03T06:47:11;9.02;;;3.83;;
56752;SDS011;42627;42.646;23.642;2022-09-03T06:49:11;9.43;;;4.10;;
56752;SDS011;42627;42.646;23.642;2022-09-03T06:51:13;10.55;;;4.25;;
56752;SDS011;42627;42.646;23.642;2022-09-03T06:53:18;8.55;;;4.22;;
56752;SDS011;42627;42.646;23.642;2022-09-03T06:55:19;9.10;;;3.50;;
56752;SDS011;42627;42.646;23.642;2022-09-03T06:57:31;7.75;;;3.38;;
56752;SDS011;42627;42.646;23.642;2022-09-03T06:59:31;10.50;;;4.25;;
56752;SDS011;42627;42.646;23.642;2022-09-03T07:01:33;7.50;;;3.47;;
56752;SDS011;42627;42.646;23.642;2022-09-03T07:03:35;9.85;;;3.50;;
56752;SDS011;42627;42.646;23.642;2022-09-03T07:05:37;9.02;;;3.78;;
56752;SDS011;42627;42.646;23.642;2022-09-03T07:07:49;7.55;;;3.53;;
56752;SDS011;42627;42.646;23.642;2022-09-03T07:10:05;5.95;;;3.17;;
56752;SDS011;42627;42.646;23.642;2022-09-03T07:12:18;8.90;;;3.53;;
56752;SDS011;42627;42.646;23.642;2022-09-03T07:14:20;7.38;;;3.60;;
56752;SDS011;42627;42.646;23.642;2022-09-03T07:16:27;7.68;;;3.63;;
56752;SDS011;42627;42.646;23.642;2022-09-03T07:18:33;7.35;;;3.72;;
56752;SDS011;42627;42.646;23.642;2022-09-03T07:20:34;6.25;;;2.90;;
56752;SDS011;42627;42.646;23.642;2022-09-03T07:22:35;8.45;;;3.38;;
56752;SDS011;42627;42.646;23.642;2022-09-03T07:24:36;9.93;;;3.28;;
56752;SDS011;42627;42.646;23.642;2022-09-03T07:26:38;7.07;;;2.85;;
56752;SDS011;42627;42.646;23.642;2022-09-03T07:28:40;7.18;;;3.08;;
56752;SDS011;42627;42.646;23.642;2022-09-03T07:30:42;7.38;;;3.33;;
56752;SDS011;42627;42.646;23.642;2022-09-03T07:32:42;8.10;;;3.58;;
56752;SDS011;42627;42.646;23.642;2022-09-03T07:34:43;8.63;;;3.55;;
56752;SDS011;42627;42.646;23.642;2022-09-03T07:36:44;8.25;;;3.75;;
56752;SDS011;42627;42.646;23.642;2022-09-03T07:38:48;9.57;;;4.22;;
56752;SDS011;42627;42.646;23.642;2022-09-03T07:40:58;10.80;;;4.57;;
56752;SDS011;42627;42.646;23.642;2022-09-03T07:43:15;8.35;;;3.50;;
56752;SDS011;42627;42.646;23.642;2022-09-03T07:45:17;6.97;;;3.20;;
56752;SDS011;42627;42.646;23.642;2022-09-03T07:47:18;5.75;;;3.08;;
56752;SDS011;42627;42.646;23.642;2022-09-03T07:49:19;8.10;;;3.47;;
56752;SDS011;42627;42.646;23.642;2022-09-03T07:51:21;7.43;;;3.22;;
56752;SDS011;42627;42.646;23.642;2022-09-03T07:53:27;9.02;;;3.92;;
56752;SDS011;42627;42.646;23.642;2022-09-03T07:55:28;7.68;;;3.25;;
56752;SDS011;42627;42.646;23.642;2022-09-03T07:57:29;12.00;;;3.72;;
56752;SDS011;42627;42.646;23.642;2022-09-03T07:59:29;6.80;;;3.22;;
56752;SDS011;42627;42.646;23.642;2022-09-03T08:01:31;7.60;;;3.08;;
56752;SDS011;42627;42.646;23.642;2022-09-03T08:03:33;9.20;;;3.28;;
56752;SDS011;42627;42.646;23.642;2022-09-03T08:05:35;7.60;;;3.08;;
56752;SDS011;42627;42.646;23.642;2022-09-03T08:07:54;8.50;;;3.58;;
56752;SDS011;42627;42.646;23.642;2022-09-03T08:10:07;7.43;;;3.10;;
56752;SDS011;42627;42.646;23.642;2022-09-03T08:12:44;5.70;;;2.67;;
56752;SDS011;42627;42.646;23.642;2022-09-03T08:14:44;7.10;;;3.05;;
56752;SDS011;42627;42.646;23.642;2022-09-03T08:16:45;6.95;;;3.13;;
56752;SDS011;42627;42.646;23.642;2022-09-03T08:18:46;7.88;;;3.00;;
56752;SDS011;42627;42.646;23.642;2022-09-03T08:20:50;13.27;;;3.40;;
56752;SDS011;42627;42.646;23.642;2022-09-03T08:22:50;8.27;;;2.97;;
56752;SDS011;42627;42.646;23.642;2022-09-03T08:24:51;8.00;;;3.22;;
56752;SDS011;42627;42.646;23.642;2022-09-03T08:26:53;14.98;;;5.50;;
56752;SDS011;42627;42.646;23.642;2022-09-03T08:28:54;11.70;;;5.25;;
56752;SDS011;42627;42.646;23.642;2022-09-03T08:30:54;11.70;;;4.75;;
56752;SDS011;42627;42.646;23.642;2022-09-03T08:32:55;9.18;;;4.20;;
56752;SDS011;42627;42.646;23.642;2022-09-03T08:34:56;12.48;;;5.57;;
56752;SDS011;42627;42.646;23.642;2022-09-03T08:36:57;12.18;;;6.15;;
56752;SDS011;42627;42.646;23.642;2022-09-03T08:39:01;12.18;;;6.78;;
56752;SDS011;42627;42.646;23.642;2022-09-03T08:43:18;7.85;;;3.78;;
56752;SDS011;42627;42.646;23.642;2022-09-03T08:45:19;5.93;;;3.03;;
56752;SDS011;42627;42.646;23.642;2022-09-03T08:49:30;12.57;;;4.07;;
56752;SDS011;42627;42.646;23.642;2022-09-03T08:51:31;8.23;;;3.53;;
56752;SDS011;42627;42.646;23.642;2022-09-03T08:53:40;7.32;;;3.28;;
56752;SDS011;42627;42.646;23.642;2022-09-03T08:58:14;7.07;;;3.38;;
56752;SDS011;42627;42.646;23.642;2022-09-03T09:00:37;8.30;;;3.28;;
56752;SDS011;42627;42.646;23.642;2022-09-03T09:05:59;6.80;;;2.78;;
56752;SDS011;42627;42.646;23.642;2022-09-03T09:10:40;4.93;;;2.40;;
56752;SDS011;42627;42.646;23.642;2022-09-03T09:22:31;4.50;;;2.30;;
56752;SDS011;42627;42.646;23.642;2022-09-03T09:24:39;6.47;;;2.65;;
56752;SDS011;42627;42.646;23.642;2022-09-03T09:28:44;5.18;;;2.15;;
56752;SDS011;42627;42.646;23.642;2022-09-03T09:30:50;9.02;;;2.42;;
56752;SDS011;42627;42.646;23.642;2022-09-03T09:32:53;7.30;;;3.15;;
56752;SDS011;42627;42.646;23.642;2022-09-03T09:34:55;8.18;;;2.67;;
56752;SDS011;42627;42.646;23.642;2022-09-03T09:36:55;7.82;;;2.80;;
56752;SDS011;42627;42.646;23.642;2022-09-03T09:39:06;4.40;;;2.35;;
56752;SDS011;42627;42.646;23.642;2022-09-03T09:41:30;7.95;;;2.85;;
56752;SDS011;42627;42.646;23.642;2022-09-03T09:45:33;3.33;;;1.80;;
56752;SDS011;42627;42.646;23.642;2022-09-03T09:47:36;4.40;;;2.20;;
56752;SDS011;42627;42.646;23.642;2022-09-03T09:51:45;6.90;;;3.45;;
56752;SDS011;42627;42.646;23.642;2022-09-03T09:53:46;6.00;;;2.40;;
56752;SDS011;42627;42.646;23.642;2022-09-03T09:55:54;6.22;;;2.92;;
56752;SDS011;42627;42.646;23.642;2022-09-03T09:58:05;7.25;;;3.00;;
56752;SDS011;42627;42.646;23.642;2022-09-03T10:00:12;5.35;;;2.40;;
56752;SDS011;42627;42.646;23.642;2022-09-03T10:04:30;7.25;;;3.25;;
56752;SDS011;42627;42.646;23.642;2022-09-03T10:06:31;4.72;;;2.47;;
56752;SDS011;42627;42.646;23.642;2022-09-03T10:09:04;3.78;;;1.65;;
56752;SDS011;42627;42.646;23.642;2022-09-03T10:13:25;6.70;;;3.03;;
56752;SDS011;42627;42.646;23.642;2022-09-03T10:15:51;5.65;;;2.35;;
56752;SDS011;42627;42.646;23.642;2022-09-03T10:22:52;5.55;;;2.63;;
56752;SDS011;42627;42.646;23.642;2022-09-03T10:24:58;6.35;;;3.20;;
56752;SDS011;42627;42.646;23.642;2022-09-03T10:27:12;6.63;;;2.65;;
56752;SDS011;42627;42.646;23.642;2022-09-03T10:32:06;6.28;;;2.55;;
56752;SDS011;42627;42.646;23.642;2022-09-03T10:34:43;7.30;;;2.63;;
56752;SDS011;42627;42.646;23.642;2022-09-03T10:37:09;4.85;;;2.35;;
56752;SDS011;42627;42.646;23.642;2022-09-03T10:39:20;6.13;;;2.60;;
56752;SDS011;42627;42.646;23.642;2022-09-03T10:46:27;5.38;;;2.40;;
56752;SDS011;42627;42.646;23.642;2022-09-03T10:51:02;4.45;;;2.13;;
56752;SDS011;42627;42.646;23.642;2022-09-03T10:57:41;4.53;;;2.13;;
56752;SDS011;42627;42.646;23.642;2022-09-03T11:00:26;4.30;;;1.95;;
56752;SDS011;42627;42.646;23.642;2022-09-03T11:04:43;3.10;;;1.45;;
56752;SDS011;42627;42.646;23.642;2022-09-03T11:06:54;3.42;;;1.58;;
56752;SDS011;42627;42.646;23.642;2022-09-03T11:09:05;3.67;;;1.80;;
56752;SDS011;42627;42.646;23.642;2022-09-03T11:11:16;3.63;;;1.90;;
56752;SDS011;42627;42.646;23.642;2022-09-03T11:13:32;4.05;;;1.58;;
56752;SDS011;42627;42.646;23.642;2022-09-03T11:15:41;4.35;;;1.65;;
56752;SDS011;42627;42.646;23.642;2022-09-03T11:17:56;4.78;;;1.90;;
56752;SDS011;42627;42.646;23.642;2022-09-03T11:20:21;3.55;;;1.50;;
56752;SDS011;42627;42.646;23.642;2022-09-03T11:22:23;5.20;;;1.85;;
56752;SDS011;42627;42.646;23.642;2022-09-03T11:24:26;4.03;;;2.08;;
56752;SDS011;42627;42.646;23.642;2022-09-03T11:26:31;6.10;;;2.30;;
56752;SDS011;42627;42.646;23.642;2022-09-03T11:33:13;4.20;;;2.05;;
56752;SDS011;42627;42.646;23.642;2022-09-03T11:37:28;3.80;;;1.92;;
56752;SDS011;42627;42.646;23.642;2022-09-03T11:39:35;3.38;;;1.60;;
56752;SDS011;42627;42.646;23.642;2022-09-03T11:41:38;4.03;;;1.83;;
56752;SDS011;42627;42.646;23.642;2022-09-03T11:43:39;4.10;;;2.13;;
56752;SDS011;42627;42.646;23.642;2022-09-03T11:45:47;3.22;;;1.67;;
56752;SDS011;42627;42.646;23.642;2022-09-03T11:47:49;4.80;;;1.83;;
56752;SDS011;42627;42.646;23.642;2022-09-03T11:49:51;3.65;;;1.55;;
56752;SDS011;42627;42.646;23.642;2022-09-03T11:52:03;3.42;;;1.70;;
56752;SDS011;42627;42.646;23.642;2022-09-03T11:56:19;4.00;;;2.20;;
56752;SDS011;42627;42.646;23.642;2022-09-03T12:00:31;2.22;;;1.25;;
56752;SDS011;42627;42.646;23.642;2022-09-03T12:02:32;3.10;;;1.30;;
56752;SDS011;42627;42.646;23.642;2022-09-03T12:19:40;3.22;;;1.50;;
56752;SDS011;42627;42.646;23.642;2022-09-03T12:21:50;3.97;;;1.67;;
56752;SDS011;42627;42.646;23.642;2022-09-03T12:23:51;2.30;;;0.95;;
56752;SDS011;42627;42.646;23.642;2022-09-03T12:25:53;1.80;;;0.80;;
56752;SDS011;42627;42.646;23.642;2022-09-03T12:27:54;2.00;;;1.00;;
56752;SDS011;42627;42.646;23.642;2022-09-03T12:32:06;2.40;;;1.08;;
56752;SDS011;42627;42.646;23.642;2022-09-03T12:34:13;2.13;;;0.90;;
56752;SDS011;42627;42.646;23.642;2022-09-03T12:36:15;3.15;;;1.40;;
56752;SDS011;42627;42.646;23.642;2022-09-03T12:38:21;3.78;;;1.10;;
56752;SDS011;42627;42.646;23.642;2022-09-03T12:40:28;3.40;;;1.52;;
56752;SDS011;42627;42.646;23.642;2022-09-03T12:44:52;2.78;;;1.58;;
56752;SDS011;42627;42.646;23.642;2022-09-03T12:47:02;2.72;;;1.45;;
56752;SDS011;42627;42.646;23.642;2022-09-03T12:49:13;2.72;;;1.40;;
56752;SDS011;42627;42.646;23.642;2022-09-03T12:51:14;3.75;;;2.00;;
56752;SDS011;42627;42.646;23.642;2022-09-03T12:53:24;3.50;;;1.40;;
56752;SDS011;42627;42.646;23.642;2022-09-03T12:55:45;4.03;;;1.63;;
56752;SDS011;42627;42.646;23.642;2022-09-03T12:57:54;2.40;;;1.25;;
56752;SDS011;42627;42.646;23.642;2022-09-03T13:00:07;3.90;;;1.67;;
56752;SDS011;42627;42.646;23.642;2022-09-03T13:02:20;3.33;;;1.35;;
56752;SDS011;42627;42.646;23.642;2022-09-03T13:04:26;2.75;;;1.52;;
56752;SDS011;42627;42.646;23.642;2022-09-03T13:06:40;3.60;;;1.70;;
56752;SDS011;42627;42.646;23.642;2022-09-03T13:09:03;3.08;;;1.33;;
56752;SDS011;42627;42.646;23.642;2022-09-03T13:11:10;2.88;;;1.52;;
56752;SDS011;42627;42.646;23.642;2022-09-03T13:13:37;2.70;;;1.30;;
56752;SDS011;42627;42.646;23.642;2022-09-03T13:16:27;3.63;;;1.85;;
56752;SDS011;42627;42.646;23.642;2022-09-03T13:21:05;5.70;;;2.20;;
56752;SDS011;42627;42.646;23.642;2022-09-03T13:27:41;4.00;;;1.95;;
56752;SDS011;42627;42.646;23.642;2022-09-03T13:30:20;3.83;;;1.80;;
56752;SDS011;42627;42.646;23.642;2022-09-03T13:45:37;4.15;;;1.73;;
56752;SDS011;42627;42.646;23.642;2022-09-03T13:47:42;3.40;;;1.40;;
56752;SDS011;42627;42.646;23.642;2022-09-03T13:50:22;3.22;;;1.45;;
56752;SDS011;42627;42.646;23.642;2022-09-03T13:52:39;3.35;;;1.52;;
56752;SDS011;42627;42.646;23.642;2022-09-03T13:54:51;2.83;;;1.40;;
56752;SDS011;42627;42.646;23.642;2022-09-03T13:56:58;3.00;;;1.38;;
56752;SDS011;42627;42.646;23.642;2022-09-03T13:59:16;2.13;;;1.20;;
56752;SDS011;42627;42.646;23.642;2022-09-03T14:03:58;3.42;;;1.30;;
56752;SDS011;42627;42.646;23.642;2022-09-03T14:06:04;3.90;;;1.70;;
56752;SDS011;42627;42.646;23.642;2022-09-03T14:08:24;2.90;;;1.42;;
56752;SDS011;42627;42.646;23.642;2022-09-03T14:16:24;3.28;;;1.80;;
56752;SDS011;42627;42.646;23.642;2022-09-03T14:18:34;4.05;;;1.75;;
56752;SDS011;42627;42.646;23.642;2022-09-03T14:20:43;2.50;;;1.30;;
56752;SDS011;42627;42.646;23.642;2022-09-03T14:24:58;4.80;;;1.50;;
56752;SDS011;42627;42.646;23.642;2022-09-03T14:27:03;2.70;;;1.52;;
56752;SDS011;42627;42.646;23.642;2022-09-03T14:29:15;3.70;;;1.42;;
56752;SDS011;42627;42.646;23.642;2022-09-03T14:31:29;2.85;;;1.40;;
56752;SDS011;42627;42.646;23.642;2022-09-03T14:34:14;4.05;;;1.75;;
56752;SDS011;42627;42.646;23.642;2022-09-03T14:36:36;2.22;;;1.35;;
56752;SDS011;42627;42.646;23.642;2022-09-03T14:56:25;1.95;;;1.00;;
56752;SDS011;42627;42.646;23.642;2022-09-03T14:58:54;2.50;;;1.27;;
56752;SDS011;42627;42.646;23.642;2022-09-03T15:01:12;2.28;;;1.33;;
56752;SDS011;42627;42.646;23.642;2022-09-03T15:05:55;1.63;;;0.90;;
56752;SDS011;42627;42.646;23.642;2022-09-03T15:11:03;1.70;;;0.82;;
56752;SDS011;42627;42.646;23.642;2022-09-03T15:13:42;3.75;;;1.50;;
56752;SDS011;42627;42.646;23.642;2022-09-03T15:20:21;2.78;;;1.40;;
56752;SDS011;42627;42.646;23.642;2022-09-03T15:30:54;2.15;;;1.30;;
56752;SDS011;42627;42.646;23.642;2022-09-03T15:33:18;2.42;;;1.20;;
56752;SDS011;42627;42.646;23.642;2022-09-03T15:35:32;2.55;;;1.08;;
56752;SDS011;42627;42.646;23.642;2022-09-03T15:37:43;2.30;;;1.05;;
56752;SDS011;42627;42.646;23.642;2022-09-03T15:44:33;4.18;;;1.67;;
56752;SDS011;42627;42.646;23.642;2022-09-03T15:48:49;3.38;;;1.45;;
56752;SDS011;42627;42.646;23.642;2022-09-03T15:51:15;3.40;;;1.52;;
56752;SDS011;42627;42.646;23.642;2022-09-03T16:01:21;3.88;;;1.83;;
56752;SDS011;42627;42.646;23.642;2022-09-03T16:04:08;5.22;;;2.00;;
56752;SDS011;42627;42.646;23.642;2022-09-03T16:06:17;3.03;;;1.70;;
56752;SDS011;42627;42.646;23.642;2022-09-03T16:10:56;5.70;;;2.13;;
56752;SDS011;42627;42.646;23.642;2022-09-03T16:15:49;3.47;;;2.05;;
56752;SDS011;42627;42.646;23.642;2022-09-03T16:20:06;3.90;;;2.40;;
56752;SDS011;42627;42.646;23.642;2022-09-03T16:28:08;6.03;;;2.75;;
56752;SDS011;42627;42.646;23.642;2022-09-03T16:30:32;4.05;;;2.47;;
56752;SDS011;42627;42.646;23.642;2022-09-03T16:46:41;6.32;;;2.67;;
56752;SDS011;42627;42.646;23.642;2022-09-03T16:59:30;4.47;;;2.33;;
56752;SDS011;42627;42.646;23.642;2022-09-03T17:06:06;5.65;;;2.85;;
56752;SDS011;42627;42.646;23.642;2022-09-03T17:11:02;4.72;;;2.58;;
56752;SDS011;42627;42.646;23.642;2022-09-03T17:15:29;4.82;;;2.92;;
56752;SDS011;42627;42.646;23.642;2022-09-03T17:20:04;4.88;;;2.70;;
56752;SDS011;42627;42.646;23.642;2022-09-03T17:24:56;5.22;;;2.60;;
56752;SDS011;42627;42.646;23.642;2022-09-03T17:36:23;5.32;;;2.60;;
56752;SDS011;42627;42.646;23.642;2022-09-03T17:48:47;7.28;;;2.70;;
56752;SDS011;42627;42.646;23.642;2022-09-03T17:50:57;5.68;;;2.72;;
56752;SDS011;42627;42.646;23.642;2022-09-03T17:53:09;6.22;;;3.75;;
56752;SDS011;42627;42.646;23.642;2022-09-03T17:55:23;10.35;;;4.55;;
56752;SDS011;42627;42.646;23.642;2022-09-03T17:58:00;5.65;;;2.92;;
56752;SDS011;42627;42.646;23.642;2022-09-03T18:00:27;7.40;;;3.60;;
56752;SDS011;42627;42.646;23.642;2022-09-03T18:02:58;6.97;;;2.92;;
56752;SDS011;42627;42.646;23.642;2022-09-03T18:05:18;6.72;;;3.20;;
56752;SDS011;42627;42.646;23.642;2022-09-03T18:15:25;9.45;;;4.75;;